sensor_id;sensor_type;location;lat;lon;timestamp;P1;durP1;ratioP1;P2;durP2;ratioP2
36443;SDS011;24692;45.642;13.806;2023-02-19T00:01:10;123.50;;;56.33;;
36443;SDS011;24692;45.642;13.806;2023-02-19T00:03:40;127.23;;;58.23;;
36443;SDS011;24692;45.642;13.806;2023-02-19T00:06:09;116.07;;;55.37;;
36443;SDS011;24692;45.642;13.806;2023-02-19T00:08:36;120.50;;;55.63;;
36443;SDS011;24692;45.642;13.806;2023-02-19T00:11:03;112.87;;;54.00;;
36443;SDS011;24692;45.642;13.806;2023-02-19T00:13:30;111.77;;;54.70;;
36443;SDS011;24692;45.642;13.806;2023-02-19T00:16:03;116.43;;;55.13;;
36443;SDS011;24692;45.642;13.806;2023-02-19T00:18:43;109.03;;;52.30;;
36443;SDS011;24692;45.642;13.806;2023-02-19T00:21:09;106.23;;;52.27;;
36443;SDS011;24692;45.642;13.806;2023-02-19T00:23:34;108.80;;;52.10;;
36443;SDS011;24692;45.642;13.806;2023-02-19T00:26:01;93.47;;;49.00;;
36443;SDS011;24692;45.642;13.806;2023-02-19T00:28:28;102.23;;;50.93;;
36443;SDS011;24692;45.642;13.806;2023-02-19T00:30:54;93.00;;;47.97;;
36443;SDS011;24692;45.642;13.806;2023-02-19T00:33:19;92.93;;;47.40;;
36443;SDS011;24692;45.642;13.806;2023-02-19T00:35:45;95.30;;;48.43;;
36443;SDS011;24692;45.642;13.806;2023-02-19T00:38:10;97.80;;;48.47;;
36443;SDS011;24692;45.642;13.806;2023-02-19T00:40:36;85.07;;;44.27;;
36443;SDS011;24692;45.642;13.806;2023-02-19T00:43:02;86.73;;;44.10;;
36443;SDS011;24692;45.642;13.806;2023-02-19T00:45:28;89.70;;;45.17;;
36443;SDS011;24692;45.642;13.806;2023-02-19T00:47:54;83.47;;;44.37;;
36443;SDS011;24692;45.642;13.806;2023-02-19T00:50:19;79.80;;;42.03;;
36443;SDS011;24692;45.642;13.806;2023-02-19T00:52:45;77.40;;;41.83;;
36443;SDS011;24692;45.642;13.806;2023-02-19T00:55:11;76.33;;;41.47;;
36443;SDS011;24692;45.642;13.806;2023-02-19T00:57:37;76.33;;;42.70;;
36443;SDS011;24692;45.642;13.806;2023-02-19T01:00:03;71.23;;;38.90;;
36443;SDS011;24692;45.642;13.806;2023-02-19T01:02:30;73.07;;;39.53;;
36443;SDS011;24692;45.642;13.806;2023-02-19T01:04:56;70.80;;;38.83;;
36443;SDS011;24692;45.642;13.806;2023-02-19T01:07:22;71.50;;;37.93;;
36443;SDS011;24692;45.642;13.806;2023-02-19T01:09:48;65.63;;;36.80;;
36443;SDS011;24692;45.642;13.806;2023-02-19T01:12:13;67.97;;;37.27;;
36443;SDS011;24692;45.642;13.806;2023-02-19T01:14:39;66.57;;;38.00;;
36443;SDS011;24692;45.642;13.806;2023-02-19T01:17:05;64.37;;;36.20;;
36443;SDS011;24692;45.642;13.806;2023-02-19T01:19:31;61.83;;;35.47;;
36443;SDS011;24692;45.642;13.806;2023-02-19T01:21:56;61.23;;;34.53;;
36443;SDS011;24692;45.642;13.806;2023-02-19T01:24:22;61.60;;;35.40;;
36443;SDS011;24692;45.642;13.806;2023-02-19T01:26:47;56.70;;;33.40;;
36443;SDS011;24692;45.642;13.806;2023-02-19T01:29:13;56.90;;;34.33;;
36443;SDS011;24692;45.642;13.806;2023-02-19T01:31:39;58.50;;;34.70;;
36443;SDS011;24692;45.642;13.806;2023-02-19T01:34:06;55.93;;;34.43;;
36443;SDS011;24692;45.642;13.806;2023-02-19T01:36:33;65.07;;;35.77;;
36443;SDS011;24692;45.642;13.806;2023-02-19T01:39:01;65.80;;;35.33;;
36443;SDS011;24692;45.642;13.806;2023-02-19T01:41:29;61.57;;;33.97;;
36443;SDS011;24692;45.642;13.806;2023-02-19T01:44:03;60.57;;;34.40;;
36443;SDS011;24692;45.642;13.806;2023-02-19T01:46:52;49.93;;;30.30;;
36443;SDS011;24692;45.642;13.806;2023-02-19T01:51:59;49.33;;;29.70;;
36443;SDS011;24692;45.642;13.806;2023-02-19T01:54:30;53.00;;;31.43;;
36443;SDS011;24692;45.642;13.806;2023-02-19T01:56:58;48.40;;;30.17;;
36443;SDS011;24692;45.642;13.806;2023-02-19T01:59:28;52.37;;;31.43;;
36443;SDS011;24692;45.642;13.806;2023-02-19T02:01:55;57.23;;;32.93;;
36443;SDS011;24692;45.642;13.806;2023-02-19T02:04:21;54.67;;;32.00;;
36443;SDS011;24692;45.642;13.806;2023-02-19T02:06:48;54.17;;;32.97;;
36443;SDS011;24692;45.642;13.806;2023-02-19T02:09:17;59.17;;;33.40;;
36443;SDS011;24692;45.642;13.806;2023-02-19T02:12:03;62.00;;;34.87;;
36443;SDS011;24692;45.642;13.806;2023-02-19T02:14:30;57.93;;;33.97;;
36443;SDS011;24692;45.642;13.806;2023-02-19T02:23:02;65.73;;;37.03;;
36443;SDS011;24692;45.642;13.806;2023-02-19T02:31:03;85.67;;;45.00;;
36443;SDS011;24692;45.642;13.806;2023-02-19T02:33:46;67.30;;;37.97;;
36443;SDS011;24692;45.642;13.806;2023-02-19T02:36:24;63.87;;;36.63;;
36443;SDS011;24692;45.642;13.806;2023-02-19T02:39:03;73.63;;;39.50;;
36443;SDS011;24692;45.642;13.806;2023-02-19T02:41:32;70.07;;;38.47;;
36443;SDS011;24692;45.642;13.806;2023-02-19T02:43:57;77.13;;;40.93;;
36443;SDS011;24692;45.642;13.806;2023-02-19T02:46:26;81.80;;;43.97;;
36443;SDS011;24692;45.642;13.806;2023-02-19T02:49:00;75.57;;;40.03;;
36443;SDS011;24692;45.642;13.806;2023-02-19T02:51:30;73.73;;;40.33;;
36443;SDS011;24692;45.642;13.806;2023-02-19T02:56:48;78.47;;;41.73;;
36443;SDS011;24692;45.642;13.806;2023-02-19T02:59:15;81.33;;;42.90;;
36443;SDS011;24692;45.642;13.806;2023-02-19T03:10:16;85.57;;;44.83;;
36443;SDS011;24692;45.642;13.806;2023-02-19T03:12:46;76.63;;;41.50;;
36443;SDS011;24692;45.642;13.806;2023-02-19T03:15:38;76.40;;;41.30;;
36443;SDS011;24692;45.642;13.806;2023-02-19T03:18:31;74.07;;;40.27;;
36443;SDS011;24692;45.642;13.806;2023-02-19T03:21:17;78.07;;;42.80;;
36443;SDS011;24692;45.642;13.806;2023-02-19T03:23:46;87.27;;;47.23;;
36443;SDS011;24692;45.642;13.806;2023-02-19T03:26:31;93.23;;;47.40;;
36443;SDS011;24692;45.642;13.806;2023-02-19T03:28:57;82.90;;;43.50;;
36443;SDS011;24692;45.642;13.806;2023-02-19T03:31:43;92.17;;;47.27;;
36443;SDS011;24692;45.642;13.806;2023-02-19T03:34:13;92.37;;;48.30;;
36443;SDS011;24692;45.642;13.806;2023-02-19T03:36:45;96.23;;;50.30;;
36443;SDS011;24692;45.642;13.806;2023-02-19T03:39:19;104.10;;;54.23;;
36443;SDS011;24692;45.642;13.806;2023-02-19T03:47:13;105.67;;;53.37;;
36443;SDS011;24692;45.642;13.806;2023-02-19T03:53:26;105.27;;;54.23;;
36443;SDS011;24692;45.642;13.806;2023-02-19T03:58:17;93.30;;;47.97;;
36443;SDS011;24692;45.642;13.806;2023-02-19T04:01:11;99.63;;;50.23;;
36443;SDS011;24692;45.642;13.806;2023-02-19T04:03:53;93.03;;;47.40;;
36443;SDS011;24692;45.642;13.806;2023-02-19T04:06:30;84.40;;;45.63;;
36443;SDS011;24692;45.642;13.806;2023-02-19T04:08:58;93.30;;;48.17;;
36443;SDS011;24692;45.642;13.806;2023-02-19T04:11:27;87.43;;;46.37;;
36443;SDS011;24692;45.642;13.806;2023-02-19T04:13:58;89.73;;;47.30;;
36443;SDS011;24692;45.642;13.806;2023-02-19T04:16:28;114.17;;;59.37;;
36443;SDS011;24692;45.642;13.806;2023-02-19T04:18:58;130.37;;;64.37;;
36443;SDS011;24692;45.642;13.806;2023-02-19T04:21:29;136.03;;;66.87;;
36443;SDS011;24692;45.642;13.806;2023-02-19T04:23:58;131.53;;;65.50;;
36443;SDS011;24692;45.642;13.806;2023-02-19T04:26:28;130.77;;;63.90;;
36443;SDS011;24692;45.642;13.806;2023-02-19T04:28:56;125.73;;;63.80;;
36443;SDS011;24692;45.642;13.806;2023-02-19T04:31:21;128.23;;;66.23;;
36443;SDS011;24692;45.642;13.806;2023-02-19T04:33:48;122.33;;;60.80;;
36443;SDS011;24692;45.642;13.806;2023-02-19T04:36:13;125.83;;;63.47;;
36443;SDS011;24692;45.642;13.806;2023-02-19T04:38:39;117.40;;;59.30;;
36443;SDS011;24692;45.642;13.806;2023-02-19T04:41:05;126.87;;;63.30;;
36443;SDS011;24692;45.642;13.806;2023-02-19T04:43:31;124.10;;;61.10;;
36443;SDS011;24692;45.642;13.806;2023-02-19T04:46:00;130.63;;;66.10;;
36443;SDS011;24692;45.642;13.806;2023-02-19T04:48:26;126.97;;;63.47;;
36443;SDS011;24692;45.642;13.806;2023-02-19T04:50:52;124.57;;;62.50;;
36443;SDS011;24692;45.642;13.806;2023-02-19T04:53:18;118.20;;;59.90;;
36443;SDS011;24692;45.642;13.806;2023-02-19T04:55:43;112.03;;;57.50;;
36443;SDS011;24692;45.642;13.806;2023-02-19T04:58:09;116.47;;;59.27;;
36443;SDS011;24692;45.642;13.806;2023-02-19T05:00:34;114.53;;;56.10;;
36443;SDS011;24692;45.642;13.806;2023-02-19T05:03:00;116.03;;;58.30;;
36443;SDS011;24692;45.642;13.806;2023-02-19T05:05:26;107.97;;;54.97;;
36443;SDS011;24692;45.642;13.806;2023-02-19T05:07:51;113.87;;;56.97;;
36443;SDS011;24692;45.642;13.806;2023-02-19T05:10:17;112.73;;;58.50;;
36443;SDS011;24692;45.642;13.806;2023-02-19T05:12:43;116.80;;;59.23;;
36443;SDS011;24692;45.642;13.806;2023-02-19T05:15:09;118.90;;;59.13;;
36443;SDS011;24692;45.642;13.806;2023-02-19T05:17:34;114.90;;;58.97;;
36443;SDS011;24692;45.642;13.806;2023-02-19T05:20:00;121.00;;;60.63;;
36443;SDS011;24692;45.642;13.806;2023-02-19T05:22:27;120.80;;;60.63;;
36443;SDS011;24692;45.642;13.806;2023-02-19T05:24:53;124.63;;;64.70;;
36443;SDS011;24692;45.642;13.806;2023-02-19T05:27:19;126.30;;;62.57;;
36443;SDS011;24692;45.642;13.806;2023-02-19T05:29:45;130.13;;;62.73;;
36443;SDS011;24692;45.642;13.806;2023-02-19T05:32:10;129.37;;;62.67;;
36443;SDS011;24692;45.642;13.806;2023-02-19T05:34:36;127.97;;;64.97;;
36443;SDS011;24692;45.642;13.806;2023-02-19T05:37:02;128.33;;;63.83;;
36443;SDS011;24692;45.642;13.806;2023-02-19T05:39:27;123.73;;;63.00;;
36443;SDS011;24692;45.642;13.806;2023-02-19T05:41:53;137.60;;;66.13;;
36443;SDS011;24692;45.642;13.806;2023-02-19T05:44:18;139.07;;;66.03;;
36443;SDS011;24692;45.642;13.806;2023-02-19T05:46:44;125.87;;;63.83;;
36443;SDS011;24692;45.642;13.806;2023-02-19T05:49:10;135.43;;;64.37;;
36443;SDS011;24692;45.642;13.806;2023-02-19T05:51:35;127.83;;;64.60;;
36443;SDS011;24692;45.642;13.806;2023-02-19T05:54:01;128.03;;;62.87;;
36443;SDS011;24692;45.642;13.806;2023-02-19T05:56:34;136.47;;;67.07;;
36443;SDS011;24692;45.642;13.806;2023-02-19T05:59:02;135.57;;;66.30;;
36443;SDS011;24692;45.642;13.806;2023-02-19T06:01:34;135.70;;;65.17;;
36443;SDS011;24692;45.642;13.806;2023-02-19T06:04:00;133.00;;;63.23;;
36443;SDS011;24692;45.642;13.806;2023-02-19T06:06:26;128.03;;;63.60;;
36443;SDS011;24692;45.642;13.806;2023-02-19T06:08:52;137.53;;;64.83;;
36443;SDS011;24692;45.642;13.806;2023-02-19T06:11:18;135.40;;;65.87;;
36443;SDS011;24692;45.642;13.806;2023-02-19T06:13:44;141.10;;;67.87;;
36443;SDS011;24692;45.642;13.806;2023-02-19T06:16:10;139.77;;;67.80;;
36443;SDS011;24692;45.642;13.806;2023-02-19T06:18:36;148.87;;;70.30;;
36443;SDS011;24692;45.642;13.806;2023-02-19T06:21:05;139.00;;;68.30;;
36443;SDS011;24692;45.642;13.806;2023-02-19T06:23:32;127.57;;;62.43;;
36443;SDS011;24692;45.642;13.806;2023-02-19T06:26:20;137.60;;;64.33;;
36443;SDS011;24692;45.642;13.806;2023-02-19T06:28:48;136.80;;;64.00;;
36443;SDS011;24692;45.642;13.806;2023-02-19T06:31:15;141.00;;;67.23;;
36443;SDS011;24692;45.642;13.806;2023-02-19T06:33:41;134.53;;;65.50;;
36443;SDS011;24692;45.642;13.806;2023-02-19T06:36:09;142.33;;;66.90;;
36443;SDS011;24692;45.642;13.806;2023-02-19T06:38:39;129.90;;;62.73;;
36443;SDS011;24692;45.642;13.806;2023-02-19T06:41:06;138.07;;;65.27;;
36443;SDS011;24692;45.642;13.806;2023-02-19T06:43:32;134.37;;;64.17;;
36443;SDS011;24692;45.642;13.806;2023-02-19T06:45:59;133.60;;;62.67;;
36443;SDS011;24692;45.642;13.806;2023-02-19T06:48:26;114.13;;;56.53;;
36443;SDS011;24692;45.642;13.806;2023-02-19T06:50:52;114.50;;;56.83;;
36443;SDS011;24692;45.642;13.806;2023-02-19T06:53:18;98.47;;;50.90;;
36443;SDS011;24692;45.642;13.806;2023-02-19T06:55:53;129.23;;;63.00;;
36443;SDS011;24692;45.642;13.806;2023-02-19T06:58:30;127.03;;;60.97;;
36443;SDS011;24692;45.642;13.806;2023-02-19T07:00:56;133.67;;;63.53;;
36443;SDS011;24692;45.642;13.806;2023-02-19T07:03:22;133.87;;;64.07;;
36443;SDS011;24692;45.642;13.806;2023-02-19T07:05:47;135.90;;;65.13;;
36443;SDS011;24692;45.642;13.806;2023-02-19T07:08:13;123.30;;;59.07;;
36443;SDS011;24692;45.642;13.806;2023-02-19T07:10:41;129.77;;;61.93;;
36443;SDS011;24692;45.642;13.806;2023-02-19T07:13:07;124.10;;;62.93;;
36443;SDS011;24692;45.642;13.806;2023-02-19T07:15:33;119.20;;;57.33;;
36443;SDS011;24692;45.642;13.806;2023-02-19T07:17:58;113.50;;;56.97;;
36443;SDS011;24692;45.642;13.806;2023-02-19T07:20:24;111.80;;;58.00;;
36443;SDS011;24692;45.642;13.806;2023-02-19T07:22:51;108.07;;;55.30;;
36443;SDS011;24692;45.642;13.806;2023-02-19T07:25:17;79.77;;;44.67;;
36443;SDS011;24692;45.642;13.806;2023-02-19T07:27:42;68.70;;;40.27;;
36443;SDS011;24692;45.642;13.806;2023-02-19T07:30:08;78.07;;;44.20;;
36443;SDS011;24692;45.642;13.806;2023-02-19T07:32:34;76.30;;;42.50;;
36443;SDS011;24692;45.642;13.806;2023-02-19T07:35:00;71.50;;;41.93;;
36443;SDS011;24692;45.642;13.806;2023-02-19T07:37:26;69.93;;;40.27;;
36443;SDS011;24692;45.642;13.806;2023-02-19T07:39:51;69.17;;;40.63;;
36443;SDS011;24692;45.642;13.806;2023-02-19T07:42:17;67.67;;;38.30;;
36443;SDS011;24692;45.642;13.806;2023-02-19T07:44:42;66.30;;;38.90;;
36443;SDS011;24692;45.642;13.806;2023-02-19T07:47:08;63.77;;;38.17;;
36443;SDS011;24692;45.642;13.806;2023-02-19T07:49:34;65.70;;;37.63;;
36443;SDS011;24692;45.642;13.806;2023-02-19T07:51:59;64.20;;;38.33;;
36443;SDS011;24692;45.642;13.806;2023-02-19T07:54:25;64.80;;;38.90;;
36443;SDS011;24692;45.642;13.806;2023-02-19T07:56:51;54.47;;;34.33;;
36443;SDS011;24692;45.642;13.806;2023-02-19T07:59:16;62.70;;;37.33;;
36443;SDS011;24692;45.642;13.806;2023-02-19T08:01:45;58.67;;;35.63;;
36443;SDS011;24692;45.642;13.806;2023-02-19T08:04:29;56.93;;;35.13;;
36443;SDS011;24692;45.642;13.806;2023-02-19T08:06:55;54.13;;;34.40;;
36443;SDS011;24692;45.642;13.806;2023-02-19T08:09:20;61.27;;;35.50;;
36443;SDS011;24692;45.642;13.806;2023-02-19T08:11:46;52.77;;;34.20;;
36443;SDS011;24692;45.642;13.806;2023-02-19T08:14:30;52.13;;;33.80;;
36443;SDS011;24692;45.642;13.806;2023-02-19T08:16:56;54.73;;;33.47;;
36443;SDS011;24692;45.642;13.806;2023-02-19T08:19:22;55.83;;;34.47;;
36443;SDS011;24692;45.642;13.806;2023-02-19T08:21:48;53.07;;;33.33;;
36443;SDS011;24692;45.642;13.806;2023-02-19T08:24:14;58.03;;;34.30;;
36443;SDS011;24692;45.642;13.806;2023-02-19T08:26:40;55.00;;;33.87;;
36443;SDS011;24692;45.642;13.806;2023-02-19T08:29:06;54.30;;;32.20;;
36443;SDS011;24692;45.642;13.806;2023-02-19T08:31:32;52.37;;;32.60;;
36443;SDS011;24692;45.642;13.806;2023-02-19T08:33:58;53.83;;;33.57;;
36443;SDS011;24692;45.642;13.806;2023-02-19T08:36:24;49.10;;;31.40;;
36443;SDS011;24692;45.642;13.806;2023-02-19T08:38:50;55.03;;;34.23;;
36443;SDS011;24692;45.642;13.806;2023-02-19T08:41:16;53.23;;;32.43;;
36443;SDS011;24692;45.642;13.806;2023-02-19T08:43:41;51.23;;;32.40;;
36443;SDS011;24692;45.642;13.806;2023-02-19T08:46:07;52.90;;;34.57;;
36443;SDS011;24692;45.642;13.806;2023-02-19T08:48:34;50.83;;;32.80;;
36443;SDS011;24692;45.642;13.806;2023-02-19T08:51:01;57.77;;;34.00;;
36443;SDS011;24692;45.642;13.806;2023-02-19T08:53:29;56.60;;;34.37;;
36443;SDS011;24692;45.642;13.806;2023-02-19T08:55:56;54.37;;;34.40;;
36443;SDS011;24692;45.642;13.806;2023-02-19T08:58:22;56.30;;;34.07;;
36443;SDS011;24692;45.642;13.806;2023-02-19T09:00:50;52.20;;;34.33;;
36443;SDS011;24692;45.642;13.806;2023-02-19T09:03:16;55.67;;;34.23;;
36443;SDS011;24692;45.642;13.806;2023-02-19T09:05:42;51.07;;;33.37;;
36443;SDS011;24692;45.642;13.806;2023-02-19T09:08:10;60.80;;;33.50;;
36443;SDS011;24692;45.642;13.806;2023-02-19T09:10:37;49.50;;;31.70;;
36443;SDS011;24692;45.642;13.806;2023-02-19T09:13:03;54.07;;;32.73;;
36443;SDS011;24692;45.642;13.806;2023-02-19T09:15:29;49.00;;;32.83;;
36443;SDS011;24692;45.642;13.806;2023-02-19T09:17:54;47.97;;;32.00;;
36443;SDS011;24692;45.642;13.806;2023-02-19T09:20:20;51.40;;;32.53;;
36443;SDS011;24692;45.642;13.806;2023-02-19T09:22:46;51.97;;;33.13;;
36443;SDS011;24692;45.642;13.806;2023-02-19T09:25:12;48.10;;;32.77;;
36443;SDS011;24692;45.642;13.806;2023-02-19T09:27:37;51.10;;;31.40;;
36443;SDS011;24692;45.642;13.806;2023-02-19T09:30:03;59.33;;;32.73;;
36443;SDS011;24692;45.642;13.806;2023-02-19T09:32:29;51.57;;;31.53;;
36443;SDS011;24692;45.642;13.806;2023-02-19T09:34:55;49.13;;;31.87;;
36443;SDS011;24692;45.642;13.806;2023-02-19T09:37:24;51.63;;;32.87;;
36443;SDS011;24692;45.642;13.806;2023-02-19T09:39:51;50.90;;;33.03;;
36443;SDS011;24692;45.642;13.806;2023-02-19T09:42:27;52.67;;;33.80;;
36443;SDS011;24692;45.642;13.806;2023-02-19T09:44:54;48.83;;;31.47;;
36443;SDS011;24692;45.642;13.806;2023-02-19T09:47:23;48.50;;;31.73;;
36443;SDS011;24692;45.642;13.806;2023-02-19T09:49:51;50.70;;;33.00;;
36443;SDS011;24692;45.642;13.806;2023-02-19T09:52:24;48.17;;;31.20;;
36443;SDS011;24692;45.642;13.806;2023-02-19T09:55:02;47.10;;;31.90;;
36443;SDS011;24692;45.642;13.806;2023-02-19T09:57:37;48.67;;;32.00;;
36443;SDS011;24692;45.642;13.806;2023-02-19T10:02:36;60.57;;;39.57;;
36443;SDS011;24692;45.642;13.806;2023-02-19T10:05:02;62.33;;;40.10;;
36443;SDS011;24692;45.642;13.806;2023-02-19T10:07:38;58.50;;;37.07;;
36443;SDS011;24692;45.642;13.806;2023-02-19T10:12:39;53.00;;;34.73;;
36443;SDS011;24692;45.642;13.806;2023-02-19T10:15:11;70.97;;;41.17;;
36443;SDS011;24692;45.642;13.806;2023-02-19T10:17:40;61.90;;;39.80;;
36443;SDS011;24692;45.642;13.806;2023-02-19T10:20:06;65.60;;;41.00;;
36443;SDS011;24692;45.642;13.806;2023-02-19T10:22:42;80.20;;;48.83;;
36443;SDS011;24692;45.642;13.806;2023-02-19T10:25:13;87.67;;;53.40;;
36443;SDS011;24692;45.642;13.806;2023-02-19T10:27:40;92.97;;;55.67;;
36443;SDS011;24692;45.642;13.806;2023-02-19T10:30:08;91.93;;;54.33;;
36443;SDS011;24692;45.642;13.806;2023-02-19T10:33:01;78.20;;;45.43;;
36443;SDS011;24692;45.642;13.806;2023-02-19T10:36:21;72.40;;;44.50;;
36443;SDS011;24692;45.642;13.806;2023-02-19T10:38:46;83.93;;;49.60;;
36443;SDS011;24692;45.642;13.806;2023-02-19T10:41:16;81.73;;;47.23;;
36443;SDS011;24692;45.642;13.806;2023-02-19T10:43:50;72.70;;;45.10;;
36443;SDS011;24692;45.642;13.806;2023-02-19T10:46:27;100.17;;;58.07;;
36443;SDS011;24692;45.642;13.806;2023-02-19T10:48:56;85.47;;;48.03;;
36443;SDS011;24692;45.642;13.806;2023-02-19T10:51:31;91.67;;;51.53;;
36443;SDS011;24692;45.642;13.806;2023-02-19T10:54:04;94.07;;;52.30;;
36443;SDS011;24692;45.642;13.806;2023-02-19T10:56:39;88.73;;;51.00;;
36443;SDS011;24692;45.642;13.806;2023-02-19T11:01:57;80.13;;;45.13;;
36443;SDS011;24692;45.642;13.806;2023-02-19T11:04:26;88.83;;;49.27;;
36443;SDS011;24692;45.642;13.806;2023-02-19T11:07:09;93.70;;;52.37;;
36443;SDS011;24692;45.642;13.806;2023-02-19T11:09:41;89.93;;;50.20;;
36443;SDS011;24692;45.642;13.806;2023-02-19T11:12:10;88.40;;;50.30;;
36443;SDS011;24692;45.642;13.806;2023-02-19T11:14:40;82.50;;;46.30;;
36443;SDS011;24692;45.642;13.806;2023-02-19T11:17:16;85.47;;;48.20;;
36443;SDS011;24692;45.642;13.806;2023-02-19T11:19:53;80.27;;;44.50;;
36443;SDS011;24692;45.642;13.806;2023-02-19T11:22:27;93.20;;;50.73;;
36443;SDS011;24692;45.642;13.806;2023-02-19T11:24:53;81.63;;;45.83;;
36443;SDS011;24692;45.642;13.806;2023-02-19T11:27:20;72.53;;;42.57;;
36443;SDS011;24692;45.642;13.806;2023-02-19T11:29:47;74.23;;;43.10;;
36443;SDS011;24692;45.642;13.806;2023-02-19T11:34:45;73.70;;;42.63;;
36443;SDS011;24692;45.642;13.806;2023-02-19T11:37:13;75.23;;;42.87;;
36443;SDS011;24692;45.642;13.806;2023-02-19T11:39:40;73.80;;;42.67;;
36443;SDS011;24692;45.642;13.806;2023-02-19T11:48:06;88.77;;;47.73;;
36443;SDS011;24692;45.642;13.806;2023-02-19T11:53:25;85.87;;;46.03;;
36443;SDS011;24692;45.642;13.806;2023-02-19T12:06:49;87.50;;;46.23;;
36443;SDS011;24692;45.642;13.806;2023-02-19T12:20:42;85.37;;;45.30;;
36443;SDS011;24692;45.642;13.806;2023-02-19T12:26:23;77.47;;;45.03;;
36443;SDS011;24692;45.642;13.806;2023-02-19T12:38:06;91.53;;;48.50;;
36443;SDS011;24692;45.642;13.806;2023-02-19T12:40:37;90.00;;;50.27;;
36443;SDS011;24692;45.642;13.806;2023-02-19T12:43:21;98.60;;;52.73;;
36443;SDS011;24692;45.642;13.806;2023-02-19T12:45:59;98.07;;;52.33;;
36443;SDS011;24692;45.642;13.806;2023-02-19T12:54:09;100.20;;;52.73;;
36443;SDS011;24692;45.642;13.806;2023-02-19T12:59:29;101.27;;;53.87;;
36443;SDS011;24692;45.642;13.806;2023-02-19T13:04:44;100.77;;;54.00;;
36443;SDS011;24692;45.642;13.806;2023-02-19T13:07:19;99.77;;;54.43;;
36443;SDS011;24692;45.642;13.806;2023-02-19T13:09:56;106.37;;;56.97;;
36443;SDS011;24692;45.642;13.806;2023-02-19T13:12:29;109.93;;;57.37;;
36443;SDS011;24692;45.642;13.806;2023-02-19T13:15:08;105.77;;;56.47;;
36443;SDS011;24692;45.642;13.806;2023-02-19T13:17:44;101.83;;;53.33;;
36443;SDS011;24692;45.642;13.806;2023-02-19T13:20:23;104.60;;;52.23;;
36443;SDS011;24692;45.642;13.806;2023-02-19T13:37:08;108.67;;;52.63;;
36443;SDS011;24692;45.642;13.806;2023-02-19T13:39:35;110.27;;;54.97;;
36443;SDS011;24692;45.642;13.806;2023-02-19T13:42:01;109.13;;;53.80;;
36443;SDS011;24692;45.642;13.806;2023-02-19T13:44:31;106.20;;;54.47;;
36443;SDS011;24692;45.642;13.806;2023-02-19T13:46:58;106.07;;;52.53;;
36443;SDS011;24692;45.642;13.806;2023-02-19T13:51:56;103.17;;;51.33;;
36443;SDS011;24692;45.642;13.806;2023-02-19T13:54:25;107.00;;;52.53;;
36443;SDS011;24692;45.642;13.806;2023-02-19T13:59:54;110.93;;;55.77;;
36443;SDS011;24692;45.642;13.806;2023-02-19T14:10:02;110.53;;;55.50;;
36443;SDS011;24692;45.642;13.806;2023-02-19T14:12:33;116.40;;;59.40;;
36443;SDS011;24692;45.642;13.806;2023-02-19T14:18:00;120.10;;;58.53;;
36443;SDS011;24692;45.642;13.806;2023-02-19T14:20:42;118.47;;;57.57;;
36443;SDS011;24692;45.642;13.806;2023-02-19T14:23:16;122.57;;;56.10;;
36443;SDS011;24692;45.642;13.806;2023-02-19T14:25:51;133.17;;;62.13;;
36443;SDS011;24692;45.642;13.806;2023-02-19T14:30:52;143.90;;;66.77;;
36443;SDS011;24692;45.642;13.806;2023-02-19T14:33:21;148.20;;;70.77;;
36443;SDS011;24692;45.642;13.806;2023-02-19T14:36:16;126.87;;;59.60;;
36443;SDS011;24692;45.642;13.806;2023-02-19T14:38:45;138.03;;;62.27;;
36443;SDS011;24692;45.642;13.806;2023-02-19T14:41:14;142.87;;;67.67;;
36443;SDS011;24692;45.642;13.806;2023-02-19T14:43:41;143.23;;;64.73;;
36443;SDS011;24692;45.642;13.806;2023-02-19T14:48:55;131.03;;;62.17;;
36443;SDS011;24692;45.642;13.806;2023-02-19T14:51:40;131.57;;;62.40;;
36443;SDS011;24692;45.642;13.806;2023-02-19T14:54:13;140.97;;;67.00;;
36443;SDS011;24692;45.642;13.806;2023-02-19T14:56:47;140.50;;;65.60;;
36443;SDS011;24692;45.642;13.806;2023-02-19T14:59:20;141.27;;;66.13;;
36443;SDS011;24692;45.642;13.806;2023-02-19T15:01:58;138.93;;;66.70;;
36443;SDS011;24692;45.642;13.806;2023-02-19T15:04:32;151.77;;;69.83;;
36443;SDS011;24692;45.642;13.806;2023-02-19T15:07:01;147.40;;;67.97;;
36443;SDS011;24692;45.642;13.806;2023-02-19T15:09:31;135.00;;;64.07;;
36443;SDS011;24692;45.642;13.806;2023-02-19T15:12:01;136.07;;;62.43;;
36443;SDS011;24692;45.642;13.806;2023-02-19T15:14:27;126.53;;;57.90;;
36443;SDS011;24692;45.642;13.806;2023-02-19T15:17:01;132.93;;;60.33;;
36443;SDS011;24692;45.642;13.806;2023-02-19T15:19:30;123.73;;;58.20;;
36443;SDS011;24692;45.642;13.806;2023-02-19T15:21:59;127.83;;;59.30;;
36443;SDS011;24692;45.642;13.806;2023-02-19T15:24:25;122.77;;;56.83;;
36443;SDS011;24692;45.642;13.806;2023-02-19T15:26:52;122.67;;;57.43;;
36443;SDS011;24692;45.642;13.806;2023-02-19T15:29:22;126.97;;;55.47;;
36443;SDS011;24692;45.642;13.806;2023-02-19T15:31:54;126.13;;;58.57;;
36443;SDS011;24692;45.642;13.806;2023-02-19T15:34:29;119.23;;;55.53;;
36443;SDS011;24692;45.642;13.806;2023-02-19T15:36:58;115.27;;;54.47;;
36443;SDS011;24692;45.642;13.806;2023-02-19T15:39:45;113.87;;;53.67;;
36443;SDS011;24692;45.642;13.806;2023-02-19T15:42:16;122.57;;;57.47;;
36443;SDS011;24692;45.642;13.806;2023-02-19T15:49:52;123.30;;;58.10;;
36443;SDS011;24692;45.642;13.806;2023-02-19T15:52:44;131.20;;;59.20;;
36443;SDS011;24692;45.642;13.806;2023-02-19T15:58:05;128.10;;;57.97;;
36443;SDS011;24692;45.642;13.806;2023-02-19T16:03:21;141.00;;;63.37;;
36443;SDS011;24692;45.642;13.806;2023-02-19T16:06:05;141.33;;;62.47;;
36443;SDS011;24692;45.642;13.806;2023-02-19T16:08:39;137.03;;;59.13;;
36443;SDS011;24692;45.642;13.806;2023-02-19T16:11:17;135.00;;;60.20;;
36443;SDS011;24692;45.642;13.806;2023-02-19T16:16:54;130.67;;;59.37;;
36443;SDS011;24692;45.642;13.806;2023-02-19T16:19:23;130.13;;;60.70;;
36443;SDS011;24692;45.642;13.806;2023-02-19T16:21:51;123.77;;;57.90;;
36443;SDS011;24692;45.642;13.806;2023-02-19T16:24:39;124.43;;;56.80;;
36443;SDS011;24692;45.642;13.806;2023-02-19T16:27:09;120.47;;;55.03;;
36443;SDS011;24692;45.642;13.806;2023-02-19T16:29:37;114.90;;;56.53;;
36443;SDS011;24692;45.642;13.806;2023-02-19T16:32:04;119.83;;;56.07;;
36443;SDS011;24692;45.642;13.806;2023-02-19T16:34:42;119.77;;;56.53;;
36443;SDS011;24692;45.642;13.806;2023-02-19T16:37:31;120.10;;;57.53;;
36443;SDS011;24692;45.642;13.806;2023-02-19T16:42:33;123.60;;;58.47;;
36443;SDS011;24692;45.642;13.806;2023-02-19T16:45:00;123.10;;;58.07;;
36443;SDS011;24692;45.642;13.806;2023-02-19T16:47:27;122.37;;;58.53;;
36443;SDS011;24692;45.642;13.806;2023-02-19T16:49:55;120.87;;;59.27;;
36443;SDS011;24692;45.642;13.806;2023-02-19T16:52:22;134.37;;;60.63;;